sensor_id;sensor_type;location;lat;lon;timestamp;temperature;humidity
10143;DHT22;5112;54.088;13.446;2022-09-09T00:05:31;14.00;99.90
10143;DHT22;5112;54.088;13.446;2022-09-09T00:15:39;14.10;99.90
10143;DHT22;5112;54.088;13.446;2022-09-09T00:25:47;14.20;99.90
10143;DHT22;5112;54.088;13.446;2022-09-09T00:35:56;14.20;99.90
10143;DHT22;5112;54.088;13.446;2022-09-09T00:46:12;14.30;99.90
10143;DHT22;5112;54.088;13.446;2022-09-09T00:56:21;14.30;99.90
10143;DHT22;5112;54.088;13.446;2022-09-09T01:06:30;14.30;99.90
10143;DHT22;5112;54.088;13.446;2022-09-09T01:16:33;14.30;99.90
10143;DHT22;5112;54.088;13.446;2022-09-09T01:26:37;14.20;99.90
10143;DHT22;5112;54.088;13.446;2022-09-09T01:36:44;14.30;99.90
10143;DHT22;5112;54.088;13.446;2022-09-09T01:46:49;14.10;99.90
10143;DHT22;5112;54.088;13.446;2022-09-09T01:57:00;14.10;99.90
10143;DHT22;5112;54.088;13.446;2022-09-09T02:17:28;14.10;99.90
10143;DHT22;5112;54.088;13.446;2022-09-09T02:27:33;14.10;99.90
10143;DHT22;5112;54.088;13.446;2022-09-09T02:37:38;14.10;99.90
10143;DHT22;5112;54.088;13.446;2022-09-09T02:47:48;14.20;99.90
10143;DHT22;5112;54.088;13.446;2022-09-09T02:57:53;14.30;99.90
10143;DHT22;5112;54.088;13.446;2022-09-09T03:07:58;14.30;99.90
10143;DHT22;5112;54.088;13.446;2022-09-09T03:18:00;14.30;99.90
10143;DHT22;5112;54.088;13.446;2022-09-09T03:28:03;14.30;99.90
10143;DHT22;5112;54.088;13.446;2022-09-09T03:38:05;14.30;99.90
10143;DHT22;5112;54.088;13.446;2022-09-09T03:48:08;14.40;99.90
10143;DHT22;5112;54.088;13.446;2022-09-09T03:58:12;14.40;99.90
10143;DHT22;5112;54.088;13.446;2022-09-09T04:08:15;14.40;99.90
10143;DHT22;5112;54.088;13.446;2022-09-09T04:18:17;14.40;99.90
10143;DHT22;5112;54.088;13.446;2022-09-09T04:28:23;14.40;99.90
10143;DHT22;5112;54.088;13.446;2022-09-09T04:38:25;14.40;99.90
10143;DHT22;5112;54.088;13.446;2022-09-09T04:48:28;14.40;99.90
10143;DHT22;5112;54.088;13.446;2022-09-09T04:58:31;14.40;99.90
10143;DHT22;5112;54.088;13.446;2022-09-09T05:08:34;14.40;99.90
10143;DHT22;5112;54.088;13.446;2022-09-09T05:18:36;14.40;99.90
10143;DHT22;5112;54.088;13.446;2022-09-09T05:28:39;14.50;99.90
10143;DHT22;5112;54.088;13.446;2022-09-09T05:38:41;14.60;99.90
10143;DHT22;5112;54.088;13.446;2022-09-09T05:48:45;14.70;99.90
10143;DHT22;5112;54.088;13.446;2022-09-09T05:58:49;14.80;99.90
10143;DHT22;5112;54.088;13.446;2022-09-09T06:08:54;14.90;99.90
10143;DHT22;5112;54.088;13.446;2022-09-09T06:18:57;15.00;99.90
10143;DHT22;5112;54.088;13.446;2022-09-09T06:29:01;15.00;99.90
10143;DHT22;5112;54.088;13.446;2022-09-09T06:39:05;15.10;99.90
10143;DHT22;5112;54.088;13.446;2022-09-09T06:49:09;15.10;99.90
10143;DHT22;5112;54.088;13.446;2022-09-09T06:59:11;15.30;99.90
10143;DHT22;5112;54.088;13.446;2022-09-09T07:09:15;15.30;99.90
10143;DHT22;5112;54.088;13.446;2022-09-09T07:19:17;15.60;99.90
10143;DHT22;5112;54.088;13.446;2022-09-09T07:29:20;15.50;99.90
10143;DHT22;5112;54.088;13.446;2022-09-09T07:39:22;15.50;99.90
10143;DHT22;5112;54.088;13.446;2022-09-09T07:49:25;15.80;99.90
10143;DHT22;5112;54.088;13.446;2022-09-09T07:59:27;15.80;99.90
10143;DHT22;5112;54.088;13.446;2022-09-09T08:09:32;16.00;99.90
10143;DHT22;5112;54.088;13.446;2022-09-09T08:19:34;16.10;99.90
10143;DHT22;5112;54.088;13.446;2022-09-09T08:29:37;16.30;99.90
10143;DHT22;5112;54.088;13.446;2022-09-09T08:39:39;16.70;99.90
10143;DHT22;5112;54.088;13.446;2022-09-09T08:49:56;17.20;99.90
10143;DHT22;5112;54.088;13.446;2022-09-09T09:00:00;17.50;99.90
10143;DHT22;5112;54.088;13.446;2022-09-09T09:10:12;17.60;99.90
10143;DHT22;5112;54.088;13.446;2022-09-09T09:20:20;17.60;99.90
10143;DHT22;5112;54.088;13.446;2022-09-09T09:30:26;17.80;99.90
10143;DHT22;5112;54.088;13.446;2022-09-09T09:40:30;17.90;99.90
10143;DHT22;5112;54.088;13.446;2022-09-09T09:50:33;18.70;99.90
10143;DHT22;5112;54.088;13.446;2022-09-09T10:00:35;18.90;99.90
10143;DHT22;5112;54.088;13.446;2022-09-09T10:10:51;19.40;99.90
10143;DHT22;5112;54.088;13.446;2022-09-09T10:21:06;19.00;99.90
10143;DHT22;5112;54.088;13.446;2022-09-09T10:31:19;18.90;99.90
10143;DHT22;5112;54.088;13.446;2022-09-09T10:41:39;18.60;99.90
10143;DHT22;5112;54.088;13.446;2022-09-09T10:51:52;19.70;99.90
10143;DHT22;5112;54.088;13.446;2022-09-09T11:02:00;20.80;99.90
10143;DHT22;5112;54.088;13.446;2022-09-09T11:12:05;20.50;99.90
10143;DHT22;5112;54.088;13.446;2022-09-09T11:22:20;20.30;99.90
10143;DHT22;5112;54.088;13.446;2022-09-09T11:32:54;20.10;99.90
10143;DHT22;5112;54.088;13.446;2022-09-09T11:43:05;20.10;99.90
10143;DHT22;5112;54.088;13.446;2022-09-09T11:53:21;20.00;99.90
10143;DHT22;5112;54.088;13.446;2022-09-09T12:03:35;20.70;99.90
10143;DHT22;5112;54.088;13.446;2022-09-09T12:13:52;21.60;99.90
10143;DHT22;5112;54.088;13.446;2022-09-09T12:23:56;22.40;99.90
10143;DHT22;5112;54.088;13.446;2022-09-09T12:34:09;22.40;99.90
10143;DHT22;5112;54.088;13.446;2022-09-09T12:44:12;21.70;99.90
10143;DHT22;5112;54.088;13.446;2022-09-09T12:54:15;21.40;99.90
10143;DHT22;5112;54.088;13.446;2022-09-09T13:04:20;21.30;99.90
10143;DHT22;5112;54.088;13.446;2022-09-09T13:14:29;21.30;99.90
10143;DHT22;5112;54.088;13.446;2022-09-09T13:24:34;21.20;99.90
10143;DHT22;5112;54.088;13.446;2022-09-09T13:34:37;21.00;99.90
10143;DHT22;5112;54.088;13.446;2022-09-09T13:44:40;21.20;99.90
10143;DHT22;5112;54.088;13.446;2022-09-09T13:54:47;21.20;99.90
10143;DHT22;5112;54.088;13.446;2022-09-09T14:04:50;21.90;99.90
10143;DHT22;5112;54.088;13.446;2022-09-09T14:14:56;22.60;99.90
10143;DHT22;5112;54.088;13.446;2022-09-09T14:25:00;22.40;99.90
10143;DHT22;5112;54.088;13.446;2022-09-09T14:35:04;22.20;99.90
10143;DHT22;5112;54.088;13.446;2022-09-09T14:45:07;21.40;99.90
10143;DHT22;5112;54.088;13.446;2022-09-09T14:55:10;21.10;99.90
10143;DHT22;5112;54.088;13.446;2022-09-09T15:05:12;20.80;99.90
10143;DHT22;5112;54.088;13.446;2022-09-09T15:15:15;20.70;99.90
10143;DHT22;5112;54.088;13.446;2022-09-09T15:25:16;20.80;99.90
10143;DHT22;5112;54.088;13.446;2022-09-09T15:35:20;20.10;99.90
10143;DHT22;5112;54.088;13.446;2022-09-09T15:45:22;19.50;99.90
10143;DHT22;5112;54.088;13.446;2022-09-09T15:55:25;19.00;99.90
10143;DHT22;5112;54.088;13.446;2022-09-09T16:05:26;18.70;99.90
10143;DHT22;5112;54.088;13.446;2022-09-09T16:15:29;18.20;99.90
10143;DHT22;5112;54.088;13.446;2022-09-09T16:25:31;17.90;99.90
10143;DHT22;5112;54.088;13.446;2022-09-09T16:35:37;17.60;99.90
10143;DHT22;5112;54.088;13.446;2022-09-09T16:45:42;17.70;99.90
10143;DHT22;5112;54.088;13.446;2022-09-09T16:55:46;17.40;99.90
10143;DHT22;5112;54.088;13.446;2022-09-09T17:05:48;17.10;99.90
10143;DHT22;5112;54.088;13.446;2022-09-09T17:15:51;16.50;99.90
10143;DHT22;5112;54.088;13.446;2022-09-09T17:25:56;16.40;99.90
10143;DHT22;5112;54.088;13.446;2022-09-09T17:36:01;16.20;99.90
10143;DHT22;5112;54.088;13.446;2022-09-09T17:46:06;16.00;99.90
10143;DHT22;5112;54.088;13.446;2022-09-09T17:56:12;16.00;99.90
10143;DHT22;5112;54.088;13.446;2022-09-09T18:06:16;15.90;99.90
10143;DHT22;5112;54.088;13.446;2022-09-09T18:16:19;16.00;99.90
10143;DHT22;5112;54.088;13.446;2022-09-09T18:26:24;14.80;99.90
10143;DHT22;5112;54.088;13.446;2022-09-09T18:36:29;14.50;99.90
10143;DHT22;5112;54.088;13.446;2022-09-09T18:46:33;14.90;99.90
10143;DHT22;5112;54.088;13.446;2022-09-09T18:56:36;15.10;99.90
10143;DHT22;5112;54.088;13.446;2022-09-09T19:06:40;15.30;99.90
10143;DHT22;5112;54.088;13.446;2022-09-09T19:16:45;14.80;99.90
10143;DHT22;5112;54.088;13.446;2022-09-09T19:26:49;14.70;99.90
10143;DHT22;5112;54.088;13.446;2022-09-09T19:36:53;14.80;99.90
10143;DHT22;5112;54.088;13.446;2022-09-09T19:46:55;14.90;99.90
10143;DHT22;5112;54.088;13.446;2022-09-09T19:56:58;15.30;99.90
10143;DHT22;5112;54.088;13.446;2022-09-09T20:07:00;15.70;99.90
10143;DHT22;5112;54.088;13.446;2022-09-09T20:17:03;15.80;99.90
10143;DHT22;5112;54.088;13.446;2022-09-09T20:27:05;15.90;99.90
10143;DHT22;5112;54.088;13.446;2022-09-09T20:37:08;15.80;99.90
10143;DHT22;5112;54.088;13.446;2022-09-09T20:47:10;15.80;99.90
10143;DHT22;5112;54.088;13.446;2022-09-09T20:57:13;15.80;99.90
10143;DHT22;5112;54.088;13.446;2022-09-09T21:07:21;15.60;99.90
10143;DHT22;5112;54.088;13.446;2022-09-09T21:17:24;15.60;99.90
10143;DHT22;5112;54.088;13.446;2022-09-09T21:27:26;15.50;99.90
10143;DHT22;5112;54.088;13.446;2022-09-09T21:37:29;15.40;99.90
10143;DHT22;5112;54.088;13.446;2022-09-09T21:47:30;15.30;99.90
10143;DHT22;5112;54.088;13.446;2022-09-09T21:57:33;15.20;99.90
10143;DHT22;5112;54.088;13.446;2022-09-09T22:07:35;15.20;99.90
10143;DHT22;5112;54.088;13.446;2022-09-09T22:17:38;15.20;99.90
10143;DHT22;5112;54.088;13.446;2022-09-09T22:27:40;15.00;99.90
10143;DHT22;5112;54.088;13.446;2022-09-09T22:37:43;14.90;99.90
10143;DHT22;5112;54.088;13.446;2022-09-09T22:47:44;14.90;99.90
10143;DHT22;5112;54.088;13.446;2022-09-09T22:57:48;14.80;99.90
10143;DHT22;5112;54.088;13.446;2022-09-09T23:07:50;14.70;99.90
10143;DHT22;5112;54.088;13.446;2022-09-09T23:17:54;14.50;99.90
10143;DHT22;5112;54.088;13.446;2022-09-09T23:27:57;14.30;99.90
10143;DHT22;5112;54.088;13.446;2022-09-09T23:38:00;14.10;99.90
10143;DHT22;5112;54.088;13.446;2022-09-09T23:48:02;14.10;99.90
10143;DHT22;5112;54.088;13.446;2022-09-09T23:58:05;14.00;99.90
